sensor_id;sensor_type;location;lat;lon;timestamp;pressure;altitude;pressure_sealevel;temperature;humidity
23166;BME280;11751;42.700;24.170;2022-08-05T00:01:15;94135.94;;;18.68;66.84
23166;BME280;11751;42.700;24.170;2022-08-05T00:03:41;94134.59;;;18.69;66.69
23166;BME280;11751;42.700;24.170;2022-08-05T00:06:07;94130.88;;;18.66;66.73
23166;BME280;11751;42.700;24.170;2022-08-05T00:08:33;94126.56;;;18.65;66.57
23166;BME280;11751;42.700;24.170;2022-08-05T00:11:00;94125.28;;;18.57;67.17
23166;BME280;11751;42.700;24.170;2022-08-05T00:13:27;94128.88;;;18.57;67.10
23166;BME280;11751;42.700;24.170;2022-08-05T00:15:53;94126.16;;;18.59;67.10
23166;BME280;11751;42.700;24.170;2022-08-05T00:18:18;94118.72;;;18.54;67.19
23166;BME280;11751;42.700;24.170;2022-08-05T00:20:43;94114.75;;;18.48;67.44
23166;BME280;11751;42.700;24.170;2022-08-05T00:23:09;94115.03;;;18.52;67.20
23166;BME280;11751;42.700;24.170;2022-08-05T00:25:34;94118.19;;;18.46;67.63
23166;BME280;11751;42.700;24.170;2022-08-05T00:27:59;94108.97;;;18.25;68.17
23166;BME280;11751;42.700;24.170;2022-08-05T00:30:25;94113.75;;;18.22;68.26
23166;BME280;11751;42.700;24.170;2022-08-05T00:32:50;94108.66;;;18.21;68.10
23166;BME280;11751;42.700;24.170;2022-08-05T00:35:16;94112.69;;;18.27;67.80
23166;BME280;11751;42.700;24.170;2022-08-05T00:37:41;94114.81;;;18.17;68.34
23166;BME280;11751;42.700;24.170;2022-08-05T00:40:07;94111.66;;;18.23;67.82
23166;BME280;11751;42.700;24.170;2022-08-05T00:42:37;94119.06;;;18.28;67.35
23166;BME280;11751;42.700;24.170;2022-08-05T00:45:05;94115.75;;;18.31;67.26
23166;BME280;11751;42.700;24.170;2022-08-05T00:47:31;94112.72;;;18.39;66.73
23166;BME280;11751;42.700;24.170;2022-08-05T00:49:56;94115.97;;;18.45;66.80
23166;BME280;11751;42.700;24.170;2022-08-05T00:52:22;94115.97;;;18.45;67.22
23166;BME280;11751;42.700;24.170;2022-08-05T00:54:48;94109.75;;;18.37;67.75
23166;BME280;11751;42.700;24.170;2022-08-05T00:57:13;94107.25;;;18.31;67.39
23166;BME280;11751;42.700;24.170;2022-08-05T00:59:39;94109.50;;;18.33;67.41
23166;BME280;11751;42.700;24.170;2022-08-05T01:02:04;94112.47;;;18.35;66.69
23166;BME280;11751;42.700;24.170;2022-08-05T01:04:29;94106.06;;;18.34;67.52
23166;BME280;11751;42.700;24.170;2022-08-05T01:06:55;94112.19;;;18.31;67.31
23166;BME280;11751;42.700;24.170;2022-08-05T01:09:21;94110.72;;;18.30;67.78
23166;BME280;11751;42.700;24.170;2022-08-05T01:11:48;94116.28;;;18.18;68.50
23166;BME280;11751;42.700;24.170;2022-08-05T01:14:29;94107.03;;;18.18;68.39
23166;BME280;11751;42.700;24.170;2022-08-05T01:17:06;94110.81;;;18.11;68.94
23166;BME280;11751;42.700;24.170;2022-08-05T01:19:52;94100.09;;;18.09;68.32
23166;BME280;11751;42.700;24.170;2022-08-05T01:22:28;94109.19;;;18.08;68.53
23166;BME280;11751;42.700;24.170;2022-08-05T01:30:45;94111.47;;;18.00;68.44
23166;BME280;11751;42.700;24.170;2022-08-05T01:33:14;94099.59;;;17.92;68.92
23166;BME280;11751;42.700;24.170;2022-08-05T01:35:41;94105.66;;;17.98;68.62
23166;BME280;11751;42.700;24.170;2022-08-05T01:38:10;94104.19;;;17.97;67.89
23166;BME280;11751;42.700;24.170;2022-08-05T01:40:37;94112.56;;;17.95;68.93
23166;BME280;11751;42.700;24.170;2022-08-05T01:43:04;94107.69;;;17.86;69.17
23166;BME280;11751;42.700;24.170;2022-08-05T01:45:31;94105.88;;;17.91;69.32
23166;BME280;11751;42.700;24.170;2022-08-05T01:47:59;94101.22;;;17.95;68.86
23166;BME280;11751;42.700;24.170;2022-08-05T01:50:38;94103.22;;;17.83;69.29
23166;BME280;11751;42.700;24.170;2022-08-05T01:53:10;94104.34;;;17.69;69.97
23166;BME280;11751;42.700;24.170;2022-08-05T01:55:38;94100.19;;;17.70;69.95
23166;BME280;11751;42.700;24.170;2022-08-05T01:58:06;94096.00;;;17.71;69.20
23166;BME280;11751;42.700;24.170;2022-08-05T02:00:34;94097.03;;;17.75;69.47
23166;BME280;11751;42.700;24.170;2022-08-05T02:03:06;94102.69;;;17.75;69.30
23166;BME280;11751;42.700;24.170;2022-08-05T02:05:35;94095.88;;;17.59;70.46
23166;BME280;11751;42.700;24.170;2022-08-05T02:08:03;94100.22;;;17.60;70.43
23166;BME280;11751;42.700;24.170;2022-08-05T02:10:36;94092.47;;;17.61;70.69
23166;BME280;11751;42.700;24.170;2022-08-05T02:13:07;94099.00;;;17.63;70.43
23166;BME280;11751;42.700;24.170;2022-08-05T02:15:40;94088.41;;;17.33;70.80
23166;BME280;11751;42.700;24.170;2022-08-05T02:18:19;94091.53;;;17.37;71.46
23166;BME280;11751;42.700;24.170;2022-08-05T02:20:53;94090.66;;;17.25;71.57
23166;BME280;11751;42.700;24.170;2022-08-05T02:23:23;94093.94;;;17.31;71.50
23166;BME280;11751;42.700;24.170;2022-08-05T02:25:51;94089.75;;;17.32;71.62
23166;BME280;11751;42.700;24.170;2022-08-05T02:28:26;94085.41;;;17.41;71.86
23166;BME280;11751;42.700;24.170;2022-08-05T02:31:06;94087.16;;;17.46;71.30
23166;BME280;11751;42.700;24.170;2022-08-05T02:33:41;94089.44;;;17.38;71.49
23166;BME280;11751;42.700;24.170;2022-08-05T02:36:09;94086.44;;;17.45;70.68
23166;BME280;11751;42.700;24.170;2022-08-05T02:38:36;94082.53;;;17.50;70.63
23166;BME280;11751;42.700;24.170;2022-08-05T02:41:03;94080.00;;;17.45;70.81
23166;BME280;11751;42.700;24.170;2022-08-05T02:43:31;94084.94;;;17.44;71.32
23166;BME280;11751;42.700;24.170;2022-08-05T02:45:57;94087.47;;;17.40;70.92
23166;BME280;11751;42.700;24.170;2022-08-05T02:48:24;94084.66;;;17.40;71.14
23166;BME280;11751;42.700;24.170;2022-08-05T02:50:51;94085.44;;;17.31;71.89
23166;BME280;11751;42.700;24.170;2022-08-05T02:53:17;94087.22;;;17.36;71.20
23166;BME280;11751;42.700;24.170;2022-08-05T02:55:47;94083.38;;;17.32;71.86
23166;BME280;11751;42.700;24.170;2022-08-05T02:58:15;94088.56;;;17.35;71.37
23166;BME280;11751;42.700;24.170;2022-08-05T03:00:43;94089.47;;;17.28;71.72
23166;BME280;11751;42.700;24.170;2022-08-05T03:03:13;94086.19;;;17.22;71.93
23166;BME280;11751;42.700;24.170;2022-08-05T03:05:39;94083.22;;;17.20;72.02
23166;BME280;11751;42.700;24.170;2022-08-05T03:08:05;94090.34;;;17.21;71.69
23166;BME280;11751;42.700;24.170;2022-08-05T03:10:31;94082.03;;;17.23;71.98
23166;BME280;11751;42.700;24.170;2022-08-05T03:12:56;94083.66;;;17.26;71.63
23166;BME280;11751;42.700;24.170;2022-08-05T03:15:22;94087.81;;;17.25;71.78
23166;BME280;11751;42.700;24.170;2022-08-05T03:17:47;94087.81;;;17.25;71.59
23166;BME280;11751;42.700;24.170;2022-08-05T03:20:13;94089.16;;;17.24;71.00
23166;BME280;11751;42.700;24.170;2022-08-05T03:22:38;94086.47;;;17.26;71.14
23166;BME280;11751;42.700;24.170;2022-08-05T03:25:04;94089.03;;;17.22;71.37
23166;BME280;11751;42.700;24.170;2022-08-05T03:27:30;94080.44;;;17.11;72.26
23166;BME280;11751;42.700;24.170;2022-08-05T03:29:56;94092.47;;;17.12;71.82
23166;BME280;11751;42.700;24.170;2022-08-05T03:32:23;94082.94;;;17.16;71.81
23166;BME280;11751;42.700;24.170;2022-08-05T03:34:48;94082.94;;;17.16;71.74
23166;BME280;11751;42.700;24.170;2022-08-05T03:37:14;94085.47;;;17.13;72.11
23166;BME280;11751;42.700;24.170;2022-08-05T03:40:00;94089.38;;;17.08;72.99
23166;BME280;11751;42.700;24.170;2022-08-05T03:42:28;94090.72;;;17.07;73.07
23166;BME280;11751;42.700;24.170;2022-08-05T03:44:53;94096.84;;;17.03;72.23
23166;BME280;11751;42.700;24.170;2022-08-05T03:47:19;94096.38;;;17.07;71.86
23166;BME280;11751;42.700;24.170;2022-08-05T03:49:44;94085.47;;;17.13;72.40
23166;BME280;11751;42.700;24.170;2022-08-05T03:52:12;94102.75;;;17.07;73.11
23166;BME280;11751;42.700;24.170;2022-08-05T03:54:49;94094.59;;;17.02;73.43
23166;BME280;11751;42.700;24.170;2022-08-05T03:57:22;94094.44;;;17.00;73.68
23166;BME280;11751;42.700;24.170;2022-08-05T03:59:58;94101.13;;;17.04;73.45
23166;BME280;11751;42.700;24.170;2022-08-05T04:02:28;94093.41;;;17.05;73.34
23166;BME280;11751;42.700;24.170;2022-08-05T04:04:56;94097.25;;;17.00;74.04
23166;BME280;11751;42.700;24.170;2022-08-05T04:07:23;94099.06;;;16.95;73.50
23166;BME280;11751;42.700;24.170;2022-08-05T04:09:49;94089.66;;;17.12;72.90
23166;BME280;11751;42.700;24.170;2022-08-05T04:12:15;94089.91;;;17.25;72.92
23166;BME280;11751;42.700;24.170;2022-08-05T04:14:41;94084.94;;;17.44;72.10
23166;BME280;11751;42.700;24.170;2022-08-05T04:17:08;94082.59;;;17.92;71.05
23166;BME280;11751;42.700;24.170;2022-08-05T04:19:41;94081.53;;;18.60;68.25
23166;BME280;11751;42.700;24.170;2022-08-05T04:22:07;94081.75;;;19.40;66.09
23166;BME280;11751;42.700;24.170;2022-08-05T04:24:32;94074.34;;;20.15;63.48
23166;BME280;11751;42.700;24.170;2022-08-05T04:26:57;94085.78;;;20.87;61.23
23166;BME280;11751;42.700;24.170;2022-08-05T04:29:23;94085.53;;;21.33;58.90
23166;BME280;11751;42.700;24.170;2022-08-05T04:31:48;94080.47;;;21.70;57.31
23166;BME280;11751;42.700;24.170;2022-08-05T04:34:14;94080.28;;;22.20;56.30
23166;BME280;11751;42.700;24.170;2022-08-05T04:36:39;94088.09;;;22.59;55.82
23166;BME280;11751;42.700;24.170;2022-08-05T04:39:04;94078.19;;;22.89;54.63
23166;BME280;11751;42.700;24.170;2022-08-05T04:41:30;94077.44;;;23.31;53.16
23166;BME280;11751;42.700;24.170;2022-08-05T04:43:56;94083.88;;;23.31;52.96
23166;BME280;11751;42.700;24.170;2022-08-05T04:46:21;94084.38;;;23.57;51.33
23166;BME280;11751;42.700;24.170;2022-08-05T04:48:47;94079.66;;;23.48;52.11
23166;BME280;11751;42.700;24.170;2022-08-05T04:51:12;94086.84;;;23.49;50.67
23166;BME280;11751;42.700;24.170;2022-08-05T04:53:38;94073.47;;;23.38;51.11
23166;BME280;11751;42.700;24.170;2022-08-05T04:56:06;94078.81;;;23.90;50.70
23166;BME280;11751;42.700;24.170;2022-08-05T04:58:31;94072.13;;;24.31;49.53
23166;BME280;11751;42.700;24.170;2022-08-05T05:00:57;94070.44;;;24.57;48.28
23166;BME280;11751;42.700;24.170;2022-08-05T05:03:22;94073.19;;;24.88;47.58
23166;BME280;11751;42.700;24.170;2022-08-05T05:05:47;94055.25;;;24.70;47.19
23166;BME280;11751;42.700;24.170;2022-08-05T05:08:13;94059.84;;;24.77;47.53
23166;BME280;11751;42.700;24.170;2022-08-05T05:10:42;94057.91;;;24.99;46.87
23166;BME280;11751;42.700;24.170;2022-08-05T05:13:13;94058.66;;;25.34;46.47
23166;BME280;11751;42.700;24.170;2022-08-05T05:15:40;94051.66;;;25.57;45.86
23166;BME280;11751;42.700;24.170;2022-08-05T05:18:05;94053.66;;;25.52;46.26
23166;BME280;11751;42.700;24.170;2022-08-05T05:20:31;94060.91;;;25.55;45.44
23166;BME280;11751;42.700;24.170;2022-08-05T05:22:59;94053.47;;;26.02;44.80
23166;BME280;11751;42.700;24.170;2022-08-05T05:25:25;94055.16;;;26.29;45.04
23166;BME280;11751;42.700;24.170;2022-08-05T05:27:51;94063.69;;;26.66;44.34
23166;BME280;11751;42.700;24.170;2022-08-05T05:30:20;94057.91;;;26.44;44.71
23166;BME280;11751;42.700;24.170;2022-08-05T05:32:45;94054.50;;;26.69;45.01
23166;BME280;11751;42.700;24.170;2022-08-05T05:35:11;94054.47;;;26.88;44.01
23166;BME280;11751;42.700;24.170;2022-08-05T05:40:16;94052.72;;;27.01;43.78
23166;BME280;11751;42.700;24.170;2022-08-05T05:42:42;94053.78;;;27.09;43.58
23166;BME280;11751;42.700;24.170;2022-08-05T05:45:08;94052.56;;;27.16;42.69
23166;BME280;11751;42.700;24.170;2022-08-05T05:47:34;94058.19;;;27.34;42.69
23166;BME280;11751;42.700;24.170;2022-08-05T05:50:00;94060.78;;;27.26;42.95
23166;BME280;11751;42.700;24.170;2022-08-05T05:52:26;94054.75;;;27.18;43.02
23166;BME280;11751;42.700;24.170;2022-08-05T05:54:51;94057.97;;;26.66;44.20
23166;BME280;11751;42.700;24.170;2022-08-05T05:57:17;94059.88;;;26.59;44.23
23166;BME280;11751;42.700;24.170;2022-08-05T05:59:42;94059.41;;;26.45;44.83
23166;BME280;11751;42.700;24.170;2022-08-05T06:02:08;94055.88;;;26.68;44.44
23166;BME280;11751;42.700;24.170;2022-08-05T06:04:33;94066.38;;;26.40;45.45
23166;BME280;11751;42.700;24.170;2022-08-05T06:06:59;94051.78;;;26.34;45.77
23166;BME280;11751;42.700;24.170;2022-08-05T06:09:24;94055.91;;;26.29;45.55
23166;BME280;11751;42.700;24.170;2022-08-05T06:11:49;94052.38;;;26.50;44.66
23166;BME280;11751;42.700;24.170;2022-08-05T06:14:15;94059.88;;;26.59;44.49
23166;BME280;11751;42.700;24.170;2022-08-05T06:16:40;94058.72;;;26.66;44.21
23166;BME280;11751;42.700;24.170;2022-08-05T06:19:06;94053.69;;;26.67;43.55
23166;BME280;11751;42.700;24.170;2022-08-05T06:21:31;94051.56;;;26.67;43.56
23166;BME280;11751;42.700;24.170;2022-08-05T06:23:57;94052.25;;;26.87;42.61
23166;BME280;11751;42.700;24.170;2022-08-05T06:26:24;94053.16;;;27.13;42.59
23166;BME280;11751;42.700;24.170;2022-08-05T06:28:49;94047.88;;;27.05;42.70
23166;BME280;11751;42.700;24.170;2022-08-05T06:31:15;94044.41;;;27.09;43.11
23166;BME280;11751;42.700;24.170;2022-08-05T06:33:40;94050.53;;;26.99;42.45
23166;BME280;11751;42.700;24.170;2022-08-05T06:36:06;94053.84;;;27.11;41.88
23166;BME280;11751;42.700;24.170;2022-08-05T06:38:31;94057.78;;;27.22;42.55
23166;BME280;11751;42.700;24.170;2022-08-05T06:40:56;94053.44;;;27.21;41.95
23166;BME280;11751;42.700;24.170;2022-08-05T06:43:22;94054.69;;;27.37;41.95
23166;BME280;11751;42.700;24.170;2022-08-05T06:45:47;94057.34;;;27.53;41.38
23166;BME280;11751;42.700;24.170;2022-08-05T06:48:13;94050.84;;;27.74;39.77
23166;BME280;11751;42.700;24.170;2022-08-05T06:50:38;94039.81;;;27.89;39.52
23166;BME280;11751;42.700;24.170;2022-08-05T06:53:04;94038.94;;;28.08;39.88
23166;BME280;11751;42.700;24.170;2022-08-05T06:55:29;94035.16;;;28.25;39.01
23166;BME280;11751;42.700;24.170;2022-08-05T06:57:55;94043.97;;;28.31;39.90
23166;BME280;11751;42.700;24.170;2022-08-05T07:00:20;94041.22;;;28.12;39.54
23166;BME280;11751;42.700;24.170;2022-08-05T07:02:46;94033.59;;;28.46;38.69
23166;BME280;11751;42.700;24.170;2022-08-05T07:05:12;94040.56;;;28.64;38.32
23166;BME280;11751;42.700;24.170;2022-08-05T07:07:39;94046.97;;;28.86;37.81
23166;BME280;11751;42.700;24.170;2022-08-05T07:10:06;94035.75;;;28.72;37.60
23166;BME280;11751;42.700;24.170;2022-08-05T07:12:32;94038.88;;;28.55;38.06
23166;BME280;11751;42.700;24.170;2022-08-05T07:15:16;94045.72;;;28.67;38.44
23166;BME280;11751;42.700;24.170;2022-08-05T07:18:00;94040.41;;;28.83;37.67
23166;BME280;11751;42.700;24.170;2022-08-05T07:20:27;94041.06;;;28.80;37.34
23166;BME280;11751;42.700;24.170;2022-08-05T07:22:52;94043.00;;;28.99;37.16
23166;BME280;11751;42.700;24.170;2022-08-05T07:25:17;94040.63;;;29.19;36.71
23166;BME280;11751;42.700;24.170;2022-08-05T07:27:43;94042.16;;;29.22;37.10
23166;BME280;11751;42.700;24.170;2022-08-05T07:30:09;94035.06;;;29.27;36.76
23166;BME280;11751;42.700;24.170;2022-08-05T07:32:37;94034.81;;;29.17;36.46
23166;BME280;11751;42.700;24.170;2022-08-05T07:35:07;94039.47;;;29.30;36.72
23166;BME280;11751;42.700;24.170;2022-08-05T07:37:33;94036.94;;;29.44;37.05
23166;BME280;11751;42.700;24.170;2022-08-05T07:39:58;94041.34;;;29.47;35.96
23166;BME280;11751;42.700;24.170;2022-08-05T07:42:24;94026.16;;;29.75;36.10
23166;BME280;11751;42.700;24.170;2022-08-05T07:44:49;94039.66;;;29.96;35.86
23166;BME280;11751;42.700;24.170;2022-08-05T07:47:14;94033.69;;;30.20;35.44
23166;BME280;11751;42.700;24.170;2022-08-05T07:49:40;94026.00;;;30.32;34.05
23166;BME280;11751;42.700;24.170;2022-08-05T07:52:05;94031.56;;;30.22;34.94
23166;BME280;11751;42.700;24.170;2022-08-05T07:54:31;94025.38;;;30.38;34.34
23166;BME280;11751;42.700;24.170;2022-08-05T07:56:56;94028.81;;;30.28;34.10
23166;BME280;11751;42.700;24.170;2022-08-05T07:59:22;94037.09;;;30.43;34.21
23166;BME280;11751;42.700;24.170;2022-08-05T08:01:47;94030.94;;;30.61;33.37
23166;BME280;11751;42.700;24.170;2022-08-05T08:04:12;94032.50;;;30.66;33.18
23166;BME280;11751;42.700;24.170;2022-08-05T08:06:38;94033.03;;;30.94;32.41
23166;BME280;11751;42.700;24.170;2022-08-05T08:09:03;94041.28;;;30.72;33.51
23166;BME280;11751;42.700;24.170;2022-08-05T08:11:28;94032.19;;;31.25;33.77
23166;BME280;11751;42.700;24.170;2022-08-05T08:13:54;94027.69;;;31.57;32.69
23166;BME280;11751;42.700;24.170;2022-08-05T08:16:19;94031.44;;;31.67;33.18
23166;BME280;11751;42.700;24.170;2022-08-05T08:18:46;94030.97;;;31.83;32.93
23166;BME280;11751;42.700;24.170;2022-08-05T08:21:11;94029.00;;;31.97;31.41
23166;BME280;11751;42.700;24.170;2022-08-05T08:23:37;94025.00;;;32.18;31.59
23166;BME280;11751;42.700;24.170;2022-08-05T08:26:02;94026.75;;;32.41;31.70
23166;BME280;11751;42.700;24.170;2022-08-05T08:28:28;94021.25;;;32.63;31.66
23166;BME280;11751;42.700;24.170;2022-08-05T08:30:55;94024.91;;;32.65;30.67
23166;BME280;11751;42.700;24.170;2022-08-05T08:33:21;94027.25;;;32.79;30.63
23166;BME280;11751;42.700;24.170;2022-08-05T08:35:46;94028.88;;;32.94;28.66
23166;BME280;11751;42.700;24.170;2022-08-05T08:38:12;94023.06;;;32.96;30.20
23166;BME280;11751;42.700;24.170;2022-08-05T08:40:40;94008.56;;;32.94;29.28
23166;BME280;11751;42.700;24.170;2022-08-05T08:43:06;94013.94;;;33.21;29.25
23166;BME280;11751;42.700;24.170;2022-08-05T08:45:35;94007.41;;;33.20;28.37
23166;BME280;11751;42.700;24.170;2022-08-05T08:48:02;94015.63;;;32.75;29.34
23166;BME280;11751;42.700;24.170;2022-08-05T08:50:30;94009.38;;;31.90;30.90
23166;BME280;11751;42.700;24.170;2022-08-05T08:53:03;94016.97;;;31.65;30.85
23166;BME280;11751;42.700;24.170;2022-08-05T08:55:29;94014.13;;;31.69;31.31
23166;BME280;11751;42.700;24.170;2022-08-05T08:57:57;94014.91;;;31.72;31.14
23166;BME280;11751;42.700;24.170;2022-08-05T09:00:24;93996.78;;;31.71;31.29
23166;BME280;11751;42.700;24.170;2022-08-05T09:02:51;93994.41;;;31.58;31.79
23166;BME280;11751;42.700;24.170;2022-08-05T09:05:17;94009.16;;;31.33;31.94
23166;BME280;11751;42.700;24.170;2022-08-05T09:07:42;93998.78;;;31.18;31.65
23166;BME280;11751;42.700;24.170;2022-08-05T09:10:08;94007.56;;;30.86;31.72
23166;BME280;11751;42.700;24.170;2022-08-05T09:12:34;93990.50;;;31.00;32.39
23166;BME280;11751;42.700;24.170;2022-08-05T09:15:04;93996.41;;;31.06;32.28
23166;BME280;11751;42.700;24.170;2022-08-05T09:17:30;93994.44;;;31.19;32.73
23166;BME280;11751;42.700;24.170;2022-08-05T09:19:56;94000.09;;;31.11;32.89
23166;BME280;11751;42.700;24.170;2022-08-05T09:22:21;93998.25;;;30.90;32.94
23166;BME280;11751;42.700;24.170;2022-08-05T09:25:07;93998.78;;;31.18;33.40
23166;BME280;11751;42.700;24.170;2022-08-05T09:27:34;93993.06;;;31.22;32.98
23166;BME280;11751;42.700;24.170;2022-08-05T09:30:00;93984.50;;;31.28;32.96
23166;BME280;11751;42.700;24.170;2022-08-05T09:32:38;93982.59;;;31.03;33.06
23166;BME280;11751;42.700;24.170;2022-08-05T09:35:16;93990.47;;;30.59;33.34
23166;BME280;11751;42.700;24.170;2022-08-05T09:37:52;93997.13;;;30.34;34.18
23166;BME280;11751;42.700;24.170;2022-08-05T09:42:58;93986.53;;;30.11;34.84
23166;BME280;11751;42.700;24.170;2022-08-05T09:45:37;93980.38;;;30.62;34.02
23166;BME280;11751;42.700;24.170;2022-08-05T09:50:53;93978.72;;;30.51;33.88
23166;BME280;11751;42.700;24.170;2022-08-05T09:53:19;93974.81;;;30.03;33.48
23166;BME280;11751;42.700;24.170;2022-08-05T09:55:44;93969.25;;;30.13;34.14
23166;BME280;11751;42.700;24.170;2022-08-05T09:58:11;93974.81;;;30.03;33.80
23166;BME280;11751;42.700;24.170;2022-08-05T10:00:37;93970.16;;;30.22;34.07
23166;BME280;11751;42.700;24.170;2022-08-05T10:03:09;93963.53;;;30.50;34.30
23166;BME280;11751;42.700;24.170;2022-08-05T10:05:36;93955.91;;;30.67;32.83
23166;BME280;11751;42.700;24.170;2022-08-05T10:08:04;93956.28;;;31.28;31.58
23166;BME280;11751;42.700;24.170;2022-08-05T10:10:47;93946.88;;;31.30;32.78
23166;BME280;11751;42.700;24.170;2022-08-05T10:13:43;93942.34;;;31.19;31.85
23166;BME280;11751;42.700;24.170;2022-08-05T10:16:32;93952.75;;;31.33;32.09
23166;BME280;11751;42.700;24.170;2022-08-05T10:18:59;93952.88;;;31.41;30.64
23166;BME280;11751;42.700;24.170;2022-08-05T10:21:24;93951.72;;;31.60;30.98
23166;BME280;11751;42.700;24.170;2022-08-05T10:23:50;93956.91;;;31.68;31.33
23166;BME280;11751;42.700;24.170;2022-08-05T10:26:15;93946.63;;;31.14;31.57
23166;BME280;11751;42.700;24.170;2022-08-05T10:28:42;93943.19;;;31.70;31.15
23166;BME280;11751;42.700;24.170;2022-08-05T10:31:10;93941.34;;;31.95;30.65
23166;BME280;11751;42.700;24.170;2022-08-05T10:33:36;93944.94;;;31.91;30.11
23166;BME280;11751;42.700;24.170;2022-08-05T10:36:02;93932.34;;;32.24;30.79
23166;BME280;11751;42.700;24.170;2022-08-05T10:38:30;93930.84;;;32.21;29.87
23166;BME280;11751;42.700;24.170;2022-08-05T10:41:10;93927.56;;;32.50;29.74
23166;BME280;11751;42.700;24.170;2022-08-05T10:46:12;93929.81;;;32.58;28.51
23166;BME280;11751;42.700;24.170;2022-08-05T10:48:40;93925.25;;;32.35;29.87
23166;BME280;11751;42.700;24.170;2022-08-05T10:51:14;93927.69;;;32.60;28.53
23166;BME280;11751;42.700;24.170;2022-08-05T10:54:01;93924.34;;;32.84;28.29
23166;BME280;11751;42.700;24.170;2022-08-05T10:56:30;93918.81;;;33.12;28.39
23166;BME280;11751;42.700;24.170;2022-08-05T10:59:04;93924.72;;;33.27;27.84
23166;BME280;11751;42.700;24.170;2022-08-05T11:01:38;93924.22;;;32.76;28.18
23166;BME280;11751;42.700;24.170;2022-08-05T11:04:13;93918.38;;;32.70;28.89
23166;BME280;11751;42.700;24.170;2022-08-05T11:09:23;93907.59;;;32.13;29.86
23166;BME280;11751;42.700;24.170;2022-08-05T11:11:51;93922.91;;;31.21;30.57
23166;BME280;11751;42.700;24.170;2022-08-05T11:14:26;93911.84;;;31.10;30.07
23166;BME280;11751;42.700;24.170;2022-08-05T11:17:24;93915.91;;;30.95;30.36
23166;BME280;11751;42.700;24.170;2022-08-05T11:19:56;93916.31;;;31.17;29.96
23166;BME280;11751;42.700;24.170;2022-08-05T11:25:35;93897.38;;;31.08;30.46
23166;BME280;11751;42.700;24.170;2022-08-05T11:36:47;93907.28;;;30.97;31.19
23166;BME280;11751;42.700;24.170;2022-08-05T11:39:16;93908.22;;;30.68;31.18
23166;BME280;11751;42.700;24.170;2022-08-05T11:41:49;93886.88;;;30.87;31.75
23166;BME280;11751;42.700;24.170;2022-08-05T11:44:15;93899.13;;;30.85;32.15
23166;BME280;11751;42.700;24.170;2022-08-05T11:46:46;93892.94;;;31.03;31.84
23166;BME280;11751;42.700;24.170;2022-08-05T11:49:14;93887.53;;;31.29;31.97
23166;BME280;11751;42.700;24.170;2022-08-05T11:51:41;93895.03;;;31.45;30.71
23166;BME280;11751;42.700;24.170;2022-08-05T11:54:12;93883.84;;;31.71;29.94
23166;BME280;11751;42.700;24.170;2022-08-05T11:56:45;93888.09;;;31.64;29.35
23166;BME280;11751;42.700;24.170;2022-08-05T11:59:15;93883.44;;;31.43;31.01
23166;BME280;11751;42.700;24.170;2022-08-05T12:01:52;93875.91;;;31.72;30.59
23166;BME280;11751;42.700;24.170;2022-08-05T12:04:18;93878.44;;;32.01;30.81
23166;BME280;11751;42.700;24.170;2022-08-05T12:06:43;93882.91;;;32.10;28.97
23166;BME280;11751;42.700;24.170;2022-08-05T12:09:09;93880.25;;;32.30;28.74
23166;BME280;11751;42.700;24.170;2022-08-05T12:11:34;93868.72;;;32.38;27.96
23166;BME280;11751;42.700;24.170;2022-08-05T12:14:03;93877.88;;;32.80;28.90
23166;BME280;11751;42.700;24.170;2022-08-05T12:16:36;93872.94;;;32.94;28.16
23166;BME280;11751;42.700;24.170;2022-08-05T12:19:03;93877.28;;;32.95;28.80
23166;BME280;11751;42.700;24.170;2022-08-05T12:21:32;93876.47;;;32.83;28.35
23166;BME280;11751;42.700;24.170;2022-08-05T12:24:09;93876.38;;;32.73;27.83
23166;BME280;11751;42.700;24.170;2022-08-05T12:26:40;93872.09;;;32.82;27.57
23166;BME280;11751;42.700;24.170;2022-08-05T12:29:17;93873.44;;;32.71;28.08
23166;BME280;11751;42.700;24.170;2022-08-05T12:31:51;93874.16;;;32.71;28.88
23166;BME280;11751;42.700;24.170;2022-08-05T12:34:18;93867.75;;;32.85;28.79
23166;BME280;11751;42.700;24.170;2022-08-05T12:36:45;93867.84;;;32.97;27.69
23166;BME280;11751;42.700;24.170;2022-08-05T12:39:12;93866.38;;;32.92;27.97
23166;BME280;11751;42.700;24.170;2022-08-05T12:41:39;93856.22;;;32.91;27.84
23166;BME280;11751;42.700;24.170;2022-08-05T12:44:11;93865.47;;;32.71;28.07
23166;BME280;11751;42.700;24.170;2022-08-05T12:46:39;93851.09;;;32.85;28.40
23166;BME280;11751;42.700;24.170;2022-08-05T12:49:13;93846.72;;;32.82;28.24
23166;BME280;11751;42.700;24.170;2022-08-05T12:54:17;93843.44;;;32.44;28.93
23166;BME280;11751;42.700;24.170;2022-08-05T12:56:47;93848.72;;;32.62;28.88
23166;BME280;11751;42.700;24.170;2022-08-05T12:59:24;93850.06;;;32.53;28.23
23166;BME280;11751;42.700;24.170;2022-08-05T13:04:26;93842.84;;;32.58;27.96
23166;BME280;11751;42.700;24.170;2022-08-05T13:06:54;93844.28;;;32.57;28.76
23166;BME280;11751;42.700;24.170;2022-08-05T13:09:21;93830.00;;;32.75;28.58
23166;BME280;11751;42.700;24.170;2022-08-05T13:11:47;93837.91;;;32.70;29.26
23166;BME280;11751;42.700;24.170;2022-08-05T13:14:23;93842.97;;;32.68;28.95
23166;BME280;11751;42.700;24.170;2022-08-05T13:16:54;93831.00;;;32.32;28.74
23166;BME280;11751;42.700;24.170;2022-08-05T13:19:21;93831.69;;;31.69;30.36
23166;BME280;11751;42.700;24.170;2022-08-05T13:21:47;93837.06;;;31.37;31.00
23166;BME280;11751;42.700;24.170;2022-08-05T13:24:13;93830.97;;;31.18;30.74
23166;BME280;11751;42.700;24.170;2022-08-05T13:26:38;93833.03;;;30.66;32.05
23166;BME280;11751;42.700;24.170;2022-08-05T13:29:04;93849.88;;;30.40;32.20
23166;BME280;11751;42.700;24.170;2022-08-05T13:31:29;93837.03;;;30.47;32.67